Time;durP1;ratioP1;P1;durP2;ratioP2;P2;SDS_P1;SDS_P2;PMS_P1;PMS_P2;Temp;Humidity;BMP_temperature;BMP_pressure;BME280_temperature;BME280_humidity;BME280_pressure;Samples;Min_cycle;Max_cycle;Signal;HPM_P1;HPM_P2
2022/08/25 00:02:15;;;;;;;3.15;2.85;;;20.20;99.90;;;;;;5072190;28;20111;-72
2022/08/25 00:04:40;;;;;;;3.90;2.97;;;20.20;99.90;;;;;;5068789;28;20094;-72
2022/08/25 00:07:06;;;;;;;3.15;2.85;;;20.20;99.90;;;;;;5072373;28;20024;-72
2022/08/25 00:09:33;;;;;;;3.95;2.83;;;20.20;99.90;;;;;;5072903;28;20079;-72
2022/08/25 00:11:59;;;;;;;4.15;3.20;;;20.10;99.90;;;;;;5072107;28;20052;-72
2022/08/25 00:14:33;;;;;;;2.72;2.53;;;20.10;99.90;;;;;;5074205;28;20025;-72
2022/08/25 00:16:59;;;;;;;2.88;2.60;;;20.10;99.90;;;;;;5073654;28;20032;-72
2022/08/25 00:19:30;;;;;;;2.78;2.58;;;20.00;99.90;;;;;;5074186;28;20419;-72
2022/08/25 00:21:57;;;;;;;3.08;2.78;;;20.00;99.90;;;;;;5069350;28;20049;-72
2022/08/25 00:24:23;;;;;;;4.95;2.67;;;20.00;99.90;;;;;;5074023;28;20039;-72
2022/08/25 00:26:53;;;;;;;3.53;2.92;;;19.90;99.90;;;;;;5073242;28;20385;-72
2022/08/25 00:29:20;;;;;;;2.95;2.67;;;19.90;99.90;;;;;;5074225;28;20032;-72
2022/08/25 00:31:47;;;;;;;3.67;3.30;;;19.80;99.90;;;;;;5073574;28;20115;-72
2022/08/25 00:34:17;;;;;;;2.63;2.42;;;19.70;99.90;;;;;;5074010;28;20036;-72
2022/08/25 00:36:43;;;;;;;4.65;3.08;;;19.70;99.90;;;;;;5073628;28;20110;-72
2022/08/25 00:39:10;;;;;;;3.50;3.08;;;19.60;99.90;;;;;;5067399;28;20591;-72
2022/08/25 00:41:37;;;;;;;3.15;2.55;;;19.60;99.90;;;;;;5074069;28;20036;-72
2022/08/25 00:44:06;;;;;;;2.72;2.47;;;19.50;99.90;;;;;;5073188;28;20067;-72
2022/08/25 00:46:44;;;;;;;3.92;2.85;;;19.50;99.90;;;;;;5073720;28;20098;-72
2022/08/25 00:49:27;;;;;;;3.30;3.00;;;19.50;99.90;;;;;;5066038;28;20035;-72
2022/08/25 00:51:58;;;;;;;3.45;3.15;;;19.40;99.90;;;;;;5072890;28;20074;-71
2022/08/25 00:54:28;;;;;;;3.20;2.90;;;19.30;99.90;;;;;;5073707;28;20471;-71
2022/08/25 00:56:55;;;;;;;2.78;2.58;;;19.30;99.90;;;;;;5067360;28;20385;-72
2022/08/25 00:59:23;;;;;;;3.10;2.80;;;19.20;99.90;;;;;;5073548;28;20032;-71
2022/08/25 01:01:50;;;;;;;2.85;2.65;;;19.10;99.90;;;;;;5073412;28;20043;-72
2022/08/25 01:04:16;;;;;;;4.03;3.35;;;19.10;99.90;;;;;;5072991;28;20033;-71
2022/08/25 01:06:43;;;;;;;3.38;3.08;;;19.10;99.90;;;;;;5073394;28;20028;-71
2022/08/25 01:09:09;;;;;;;3.40;3.10;;;19.00;99.90;;;;;;5072194;28;20620;-71
2022/08/25 01:11:35;;;;;;;3.50;3.20;;;19.00;99.90;;;;;;5073844;28;20427;-72
2022/08/25 01:14:05;;;;;;;3.78;3.47;;;19.00;99.90;;;;;;5067187;28;20025;-72
2022/08/25 01:16:36;;;;;;;3.77;3.33;;;19.00;99.90;;;;;;5073502;28;20025;-71
2022/08/25 01:19:02;;;;;;;3.47;3.17;;;18.90;99.90;;;;;;5071859;28;20286;-71
2022/08/25 01:21:30;;;;;;;4.30;3.75;;;18.90;99.90;;;;;;5072857;28;20808;-72
2022/08/25 01:23:58;;;;;;;6.05;3.58;;;18.90;99.90;;;;;;5072208;28;20032;-72
2022/08/25 01:26:28;;;;;;;4.30;3.42;;;18.90;99.90;;;;;;5072836;28;20070;-72
2022/08/25 01:31:40;;;;;;;4.15;3.40;;;18.80;99.90;;;;;;5072908;28;20036;-72
2022/08/25 01:34:11;;;;;;;4.22;3.85;;;18.80;99.90;;;;;;5071908;28;20029;-72
2022/08/25 01:36:38;;;;;;;3.72;3.33;;;18.80;99.90;;;;;;5074121;27;20055;-71
2022/08/25 01:39:04;;;;;;;4.32;3.90;;;18.70;99.90;;;;;;5071714;28;20068;-71
2022/08/25 01:41:47;;;;;;;4.50;3.95;;;18.70;99.90;;;;;;5072106;28;20071;-72
2022/08/25 01:44:13;;;;;;;4.40;3.35;;;18.70;99.90;;;;;;5054173;28;20024;-71
2022/08/25 01:46:39;;;;;;;4.50;4.10;;;18.70;99.90;;;;;;5065896;28;20025;-71
2022/08/25 01:49:05;;;;;;;3.95;3.58;;;18.70;99.90;;;;;;5071690;28;20036;-71
2022/08/25 01:51:43;;;;;;;3.65;3.35;;;18.60;99.90;;;;;;5072465;28;20458;-72
2022/08/25 01:54:09;;;;;;;4.32;3.92;;;18.60;99.90;;;;;;5072163;28;20035;-72
2022/08/25 01:56:34;;;;;;;4.40;3.88;;;18.50;99.90;;;;;;5071989;28;20032;-72
2022/08/25 01:59:00;;;;;;;3.95;3.65;;;18.50;99.90;;;;;;5071400;28;20085;-72
2022/08/25 02:01:26;;;;;;;4.82;3.80;;;18.50;99.90;;;;;;5067997;28;20467;-71
2022/08/25 02:03:53;;;;;;;4.30;3.85;;;18.50;99.90;;;;;;5070376;28;20436;-71
2022/08/25 02:06:27;;;;;;;6.75;4.28;;;18.50;99.90;;;;;;5071738;28;20036;-71
2022/08/25 02:08:56;;;;;;;5.35;4.22;;;18.50;99.90;;;;;;5071726;28;20040;-72
2022/08/25 02:11:22;;;;;;;4.30;3.47;;;18.50;99.90;;;;;;5072227;28;20043;-72
2022/08/25 02:13:48;;;;;;;6.88;4.10;;;18.40;99.90;;;;;;5071802;28;20032;-72
2022/08/25 02:16:24;;;;;;;4.70;4.05;;;18.40;99.90;;;;;;5071194;28;20067;-72
2022/08/25 02:18:50;;;;;;;4.57;4.13;;;18.40;99.90;;;;;;5066024;28;20033;-72
2022/08/25 02:21:16;;;;;;;7.10;4.55;;;18.40;99.90;;;;;;5052934;28;20860;-71
2022/08/25 02:23:42;;;;;;;4.38;3.97;;;18.30;99.90;;;;;;5072243;28;20024;-72
2022/08/25 02:26:08;;;;;;;5.93;4.30;;;18.30;99.90;;;;;;5070827;28;20442;-72
2022/08/25 02:28:36;;;;;;;4.78;4.35;;;18.30;99.90;;;;;;5071751;28;20028;-71
2022/08/25 02:31:05;;;;;;;5.88;4.40;;;18.30;99.90;;;;;;5070956;28;20028;-72
2022/08/25 02:33:31;;;;;;;4.47;4.07;;;18.20;99.90;;;;;;5071945;28;20132;-72
2022/08/25 02:35:58;;;;;;;5.03;4.53;;;18.20;99.90;;;;;;5065724;27;20497;-71
2022/08/25 02:38:26;;;;;;;5.40;4.18;;;18.20;99.90;;;;;;5051523;28;20033;-72
2022/08/25 02:40:52;;;;;;;5.18;4.53;;;18.20;99.90;;;;;;5051482;28;20060;-72
2022/08/25 02:43:18;;;;;;;5.63;4.13;;;18.10;99.90;;;;;;5051254;28;20059;-72
2022/08/25 02:45:44;;;;;;;5.25;4.20;;;18.10;99.90;;;;;;5051764;28;20060;-72
2022/08/25 02:48:10;;;;;;;6.68;4.60;;;18.10;99.90;;;;;;5050699;28;20025;-72
2022/08/25 02:50:35;;;;;;;5.65;4.60;;;18.10;99.90;;;;;;5046533;28;20029;-72
2022/08/25 02:53:01;;;;;;;7.13;5.20;;;18.00;99.90;;;;;;5041823;28;20031;-72
2022/08/25 02:55:27;;;;;;;4.55;4.13;;;18.00;99.90;;;;;;5051067;28;20105;-71
2022/08/25 02:57:52;;;;;;;6.05;5.22;;;18.00;99.90;;;;;;5051564;28;20433;-72
2022/08/25 03:00:18;;;;;;;6.82;5.18;;;18.00;99.90;;;;;;5050740;28;20044;-72
2022/08/25 03:02:45;;;;;;;5.53;4.95;;;18.00;99.90;;;;;;5051140;28;20439;-72
2022/08/25 03:05:12;;;;;;;7.63;4.82;;;18.00;99.90;;;;;;5050348;28;20025;-72
2022/08/25 03:07:38;;;;;;;5.57;4.60;;;18.00;99.90;;;;;;5048749;28;20025;-72
2022/08/25 03:10:11;;;;;;;6.82;5.40;;;18.00;99.90;;;;;;5047024;28;20035;-72
2022/08/25 03:12:40;;;;;;;5.35;4.68;;;18.00;99.90;;;;;;5051309;28;20044;-72
2022/08/25 03:15:08;;;;;;;6.95;4.82;;;18.00;99.90;;;;;;5050611;28;20095;-72
2022/08/25 03:17:34;;;;;;;6.65;5.03;;;18.00;99.90;;;;;;5051164;28;20025;-72
2022/08/25 03:19:59;;;;;;;5.82;4.97;;;17.90;99.90;;;;;;5050620;28;20040;-72
2022/08/25 03:22:25;;;;;;;10.25;4.93;;;17.90;99.90;;;;;;5050764;28;20037;-72
2022/08/25 03:24:50;;;;;;;5.68;4.53;;;17.90;99.90;;;;;;5047816;28;20028;-72
2022/08/25 03:27:16;;;;;;;7.38;4.88;;;17.90;99.90;;;;;;5047453;28;20021;-73
2022/08/25 03:29:41;;;;;;;6.32;4.93;;;17.90;99.90;;;;;;5050896;28;20048;-72
2022/08/25 03:32:08;;;;;;;5.93;4.40;;;17.90;99.90;;;;;;5050531;28;20026;-72
2022/08/25 03:34:33;;;;;;;5.60;4.30;;;17.90;99.90;;;;;;5051316;28;20060;-72
2022/08/25 03:36:59;;;;;;;5.00;4.40;;;17.90;99.90;;;;;;5059193;27;20126;-72
2022/08/25 03:39:26;;;;;;;6.70;4.65;;;17.80;99.90;;;;;;5071040;28;20060;-73
2022/08/25 03:41:52;;;;;;;5.40;4.28;;;17.90;99.90;;;;;;5064987;28;20037;-73
2022/08/25 03:44:19;;;;;;;5.32;4.18;;;17.80;99.90;;;;;;5069163;28;20100;-72
2022/08/25 03:46:47;;;;;;;6.07;4.30;;;17.80;99.90;;;;;;5071091;28;20025;-73
2022/08/25 03:49:21;;;;;;;6.10;4.53;;;17.80;99.90;;;;;;5070026;28;20086;-73
2022/08/25 03:51:49;;;;;;;5.07;4.57;;;17.80;99.90;;;;;;5070956;28;20380;-73
2022/08/25 03:54:17;;;;;;;4.43;4.03;;;17.70;99.90;;;;;;5070004;28;20059;-73
2022/08/25 03:56:44;;;;;;;4.43;4.03;;;17.70;99.90;;;;;;5070783;28;20064;-72
2022/08/25 03:59:10;;;;;;;6.45;4.97;;;17.60;99.90;;;;;;5064823;28;20068;-72
2022/08/25 04:01:37;;;;;;;5.82;4.55;;;17.60;99.90;;;;;;5070903;28;20067;-73
2022/08/25 04:04:03;;;;;;;5.30;4.32;;;17.60;99.90;;;;;;5071850;28;20024;-73
2022/08/25 04:06:29;;;;;;;6.38;4.95;;;17.50;99.90;;;;;;5067129;28;20515;-72
2022/08/25 04:08:57;;;;;;;4.50;4.10;;;17.50;99.90;;;;;;5074729;28;20024;-72
2022/08/25 04:11:24;;;;;;;5.13;4.55;;;17.50;99.90;;;;;;5073958;28;20036;-72
2022/08/25 04:13:51;;;;;;;4.22;3.83;;;17.40;99.90;;;;;;5062727;28;20024;-73
2022/08/25 04:16:23;;;;;;;5.68;4.75;;;17.30;99.90;;;;;;5070304;28;20025;-72
2022/08/25 04:18:50;;;;;;;5.45;4.30;;;17.30;99.90;;;;;;5074367;28;20032;-72
2022/08/25 04:21:19;;;;;;;4.88;4.38;;;17.30;99.90;;;;;;5073700;28;20033;-72
2022/08/25 04:23:47;;;;;;;6.22;4.50;;;17.20;99.90;;;;;;5074055;28;20074;-73
2022/08/25 04:26:26;;;;;;;6.05;5.07;;;17.20;99.90;;;;;;5065374;28;20096;-73
2022/08/25 04:28:52;;;;;;;6.07;4.43;;;17.20;99.90;;;;;;5074120;28;20119;-72
2022/08/25 04:31:20;;;;;;;4.78;4.22;;;17.10;99.90;;;;;;5070697;28;20639;-72
2022/08/25 04:33:47;;;;;;;4.82;4.32;;;17.10;99.90;;;;;;5070925;28;20482;-72
2022/08/25 04:36:14;;;;;;;5.03;4.47;;;17.10;99.90;;;;;;5073748;27;20031;-72
2022/08/25 04:38:41;;;;;;;4.78;4.32;;;17.10;99.90;;;;;;5073826;28;20024;-72
2022/08/25 04:41:09;;;;;;;5.55;4.97;;;17.10;99.90;;;;;;5073525;28;20060;-72
2022/08/25 04:43:37;;;;;;;6.20;5.43;;;17.10;99.90;;;;;;5073676;28;20029;-72
2022/08/25 04:46:10;;;;;;;4.93;4.43;;;17.00;99.90;;;;;;5072975;28;20115;-72
2022/08/25 04:48:36;;;;;;;6.55;5.30;;;17.00;99.90;;;;;;5052223;28;20028;-73
2022/08/25 04:51:07;;;;;;;5.53;5.03;;;17.10;99.90;;;;;;5073149;28;20588;-73
2022/08/25 04:53:33;;;;;;;6.30;4.82;;;17.00;99.90;;;;;;5073409;28;20033;-72
2022/08/25 04:55:59;;;;;;;5.78;4.75;;;17.10;99.90;;;;;;5073588;28;20102;-72
2022/08/25 04:58:26;;;;;;;8.15;4.82;;;17.00;99.90;;;;;;5073081;28;20488;-72
2022/08/25 05:00:52;;;;;;;4.95;4.20;;;17.10;99.90;;;;;;5073452;28;20043;-72
2022/08/25 05:03:18;;;;;;;6.90;4.78;;;17.00;99.90;;;;;;5072483;28;20028;-72
2022/08/25 05:05:43;;;;;;;6.25;4.95;;;17.10;99.90;;;;;;5068287;28;20070;-72
2022/08/25 05:08:09;;;;;;;4.80;4.40;;;17.10;99.90;;;;;;5072368;28;20024;-72
2022/08/25 05:10:39;;;;;;;5.00;4.47;;;17.10;99.90;;;;;;5073394;28;20033;-72
2022/08/25 05:13:05;;;;;;;5.95;4.80;;;17.20;99.90;;;;;;5072654;28;20056;-73
2022/08/25 05:18:16;;;;;;;5.47;4.70;;;17.30;99.90;;;;;;5072175;28;20457;-73
2022/08/25 05:20:42;;;;;;;6.40;4.78;;;17.40;99.90;;;;;;5072939;28;20039;-73
2022/08/25 05:23:08;;;;;;;5.30;4.80;;;17.50;99.90;;;;;;5066891;28;20021;-73
2022/08/25 05:25:34;;;;;;;6.65;5.43;;;17.60;99.90;;;;;;5073118;28;20024;-73
2022/08/25 05:28:00;;;;;;;5.38;4.88;;;17.70;99.90;;;;;;5072974;28;20511;-72
2022/08/25 05:30:25;;;;;;;7.13;5.28;;;17.70;99.90;;;;;;5072289;28;20036;-71
2022/08/25 05:32:51;;;;;;;5.70;5.03;;;17.80;99.90;;;;;;5073030;28;20029;-72
2022/08/25 05:35:18;;;;;;;6.03;5.40;;;17.90;99.90;;;;;;5072036;28;20075;-72
2022/08/25 05:37:44;;;;;;;7.25;5.47;;;18.00;99.90;;;;;;5072543;28;20067;-72
2022/08/25 05:40:10;;;;;;;6.22;5.30;;;18.10;99.90;;;;;;5066106;28;20029;-72
2022/08/25 05:42:36;;;;;;;6.15;5.22;;;18.10;99.90;;;;;;5072731;28;20029;-72
2022/08/25 05:45:02;;;;;;;7.50;5.82;;;18.20;99.90;;;;;;5072588;28;20036;-72
2022/08/25 05:47:28;;;;;;;10.90;5.88;;;18.30;99.90;;;;;;5072315;28;20024;-72
2022/08/25 05:49:55;;;;;;;8.65;6.03;;;18.40;99.90;;;;;;5072462;28;20077;-72
2022/08/25 05:52:20;;;;;;;7.55;5.85;;;18.50;99.90;;;;;;5074966;28;20052;-72
2022/08/25 05:54:46;;;;;;;6.18;5.57;;;18.60;99.90;;;;;;5075088;28;20035;-72
2022/08/25 05:57:12;;;;;;;12.98;5.88;;;18.70;99.90;;;;;;5069450;28;20113;-72
2022/08/25 05:59:37;;;;;;;8.05;5.47;;;18.80;99.90;;;;;;5073052;28;20443;-72
2022/08/25 06:04:47;;;;;;;12.10;7.55;;;18.90;99.90;;;;;;5072710;28;20044;-72
2022/08/25 06:07:13;;;;;;;9.77;6.20;;;19.00;99.90;;;;;;5072033;28;20024;-73
2022/08/25 06:09:40;;;;;;;10.52;6.57;;;19.00;99.90;;;;;;5072358;28;20082;-72
2022/08/25 06:12:07;;;;;;;10.60;6.18;;;19.20;99.90;;;;;;5071028;28;20637;-72
2022/08/25 06:14:33;;;;;;;10.82;7.43;;;19.20;99.90;;;;;;5071785;28;20033;-72
2022/08/25 06:16:59;;;;;;;7.25;6.55;;;19.40;99.90;;;;;;5066999;28;20032;-72
2022/08/25 06:19:26;;;;;;;9.80;6.88;;;19.40;99.90;;;;;;5070941;28;20111;-72
2022/08/25 06:21:56;;;;;;;8.25;6.80;;;19.50;99.90;;;;;;5071699;28;20112;-72
2022/08/25 06:24:22;;;;;;;;;;;19.50;99.90;;;;;;5071285;28;20427;-73
2022/08/25 06:26:48;;;;;;;7.95;6.95;;;19.60;99.90;;;;;;5072039;28;19909;-74
2022/08/25 06:29:14;;;;;;;10.80;6.65;;;19.70;99.90;;;;;;5061786;28;20051;-73
2022/08/25 06:31:43;;;;;;;11.95;7.25;;;19.80;99.90;;;;;;5047224;28;20021;-74
2022/08/25 06:34:09;;;;;;;17.45;7.93;;;19.90;99.90;;;;;;5069804;28;20025;-71
2022/08/25 06:36:35;;;;;;;8.75;6.93;;;20.00;99.90;;;;;;5075921;28;20052;-75
2022/08/25 06:39:00;;;;;;;11.95;7.28;;;20.20;99.90;;;;;;5070544;28;20123;-76
2022/08/25 06:41:26;;;;;;;10.60;6.88;;;20.40;99.90;;;;;;5065244;28;20024;-78
2022/08/25 06:43:52;;;;;;;13.05;7.65;;;20.50;99.90;;;;;;5070297;28;20081;-78
2022/08/25 06:46:21;;;;;;;15.98;7.95;;;20.60;99.90;;;;;;5068619;28;20032;-77
2022/08/25 06:48:47;;;;;;;10.45;6.53;;;20.60;99.90;;;;;;5061036;28;20033;-77
2022/08/25 06:51:16;;;;;;;10.85;6.82;;;20.70;99.90;;;;;;5065928;28;20505;-77
2022/08/25 06:53:43;;;;;;;13.25;7.05;;;20.70;99.90;;;;;;5068094;28;20078;-77
2022/08/25 06:56:09;;;;;;;10.27;7.03;;;20.80;99.90;;;;;;5064373;28;20044;-76
2022/08/25 06:58:35;;;;;;;7.18;6.38;;;21.00;99.90;;;;;;5073102;28;20035;-76
2022/08/25 07:01:09;;;;;;;8.75;6.30;;;21.20;99.90;;;;;;5077903;28;20090;-78
2022/08/25 07:03:35;;;;;;;8.98;6.55;;;21.20;99.90;;;;;;5070680;28;20032;-76
2022/08/25 07:06:01;;;;;;;7.85;6.00;;;21.30;99.90;;;;;;5069496;28;20556;-78
2022/08/25 07:08:27;;;;;;;8.00;6.78;;;21.50;99.90;;;;;;5070381;28;20020;-77
2022/08/25 07:10:53;;;;;;;10.70;7.05;;;21.60;99.90;;;;;;5069972;28;20029;-77
2022/08/25 07:13:19;;;;;;;14.48;7.22;;;21.80;99.90;;;;;;5070037;28;20059;-77
2022/08/25 07:15:44;;;;;;;18.67;8.57;;;21.90;99.90;;;;;;5069982;28;20101;-75
2022/08/25 07:18:10;;;;;;;9.07;6.65;;;22.10;99.90;;;;;;5068020;28;20367;-78
2022/08/25 07:20:40;;;;;;;9.05;6.90;;;22.10;99.90;;;;;;5070485;28;20029;-79
2022/08/25 07:23:06;;;;;;;7.67;6.60;;;22.30;99.90;;;;;;5070426;28;20051;-76
2022/08/25 07:25:33;;;;;;;9.25;7.18;;;22.30;99.90;;;;;;5067286;28;20387;-78
2022/08/25 07:27:58;;;;;;;19.85;8.25;;;22.50;99.90;;;;;;5070491;28;20107;-78
2022/08/25 07:30:24;;;;;;;9.05;6.60;;;22.60;99.90;;;;;;5069424;28;20108;-78
2022/08/25 07:32:49;;;;;;;7.03;6.40;;;22.70;99.90;;;;;;5070412;28;20025;-78
2022/08/25 07:35:19;;;;;;;8.40;6.68;;;22.80;99.90;;;;;;5070486;28;20099;-77
2022/08/25 07:37:47;;;;;;;9.13;6.90;;;22.90;99.90;;;;;;5072130;28;20053;-77
2022/08/25 07:40:23;;;;;;;10.50;6.80;;;23.00;99.90;;;;;;5067630;28;20047;-77
2022/08/25 07:42:51;;;;;;;16.17;8.40;;;23.10;99.90;;;;;;5076736;28;20041;-77
2022/08/25 07:45:18;;;;;;;14.55;6.47;;;23.10;99.90;;;;;;5066792;28;20024;-77
2022/08/25 07:47:43;;;;;;;7.97;7.13;;;23.30;99.90;;;;;;5074040;28;21774;-77
2022/08/25 07:50:11;;;;;;;6.88;6.15;;;23.30;99.90;;;;;;5066988;28;20032;-76
2022/08/25 07:52:38;;;;;;;11.30;7.53;;;23.40;99.90;;;;;;5073155;28;20490;-72
2022/08/25 07:55:06;;;;;;;11.77;7.03;;;23.60;99.90;;;;;;5076985;28;20131;-72
2022/08/25 07:57:33;;;;;;;11.40;7.30;;;23.60;99.90;;;;;;5071317;28;20043;-72
2022/08/25 07:59:59;;;;;;;9.20;6.95;;;23.60;99.90;;;;;;5072696;28;20033;-71
2022/08/25 08:02:24;;;;;;;8.25;7.20;;;23.80;99.90;;;;;;5070581;28;20028;-73
2022/08/25 08:04:52;;;;;;;15.68;7.72;;;23.80;99.90;;;;;;5070863;28;20035;-72
2022/08/25 08:07:19;;;;;;;8.52;7.22;;;23.90;99.90;;;;;;5069077;28;20543;-72
2022/08/25 08:09:46;;;;;;;8.43;6.57;;;24.00;99.90;;;;;;5073546;28;20388;-72
2022/08/25 08:12:12;;;;;;;8.90;6.60;;;24.20;99.90;;;;;;5068209;28;20578;-72
2022/08/25 08:14:40;;;;;;;9.57;7.68;;;24.20;99.90;;;;;;5073600;28;20033;-73
2022/08/25 08:17:08;;;;;;;10.48;6.65;;;24.30;99.90;;;;;;5073577;28;20382;-73
2022/08/25 08:19:35;;;;;;;10.00;7.00;;;24.40;99.90;;;;;;5068475;28;20039;-73
2022/08/25 08:22:02;;;;;;;8.85;6.85;;;24.60;99.90;;;;;;5067179;28;20029;-73
2022/08/25 08:24:37;;;;;;;11.77;6.45;;;24.70;99.90;;;;;;5072626;28;20580;-73
2022/08/25 08:27:04;;;;;;;6.32;5.60;;;24.80;99.90;;;;;;5069897;28;20040;-73
2022/08/25 08:29:30;;;;;;;6.45;5.78;;;24.80;99.90;;;;;;5072701;28;20028;-73
2022/08/25 08:31:55;;;;;;;6.57;5.93;;;24.90;99.90;;;;;;5073650;28;20078;-73
2022/08/25 08:34:22;;;;;;;7.88;6.53;;;24.90;99.90;;;;;;5070811;28;20025;-73
2022/08/25 08:36:48;;;;;;;7.28;5.65;;;25.10;99.90;;;;;;5070939;28;20040;-73
2022/08/25 08:39:14;;;;;;;6.95;6.28;;;25.20;99.90;;;;;;5072136;28;20032;-73
2022/08/25 08:44:44;;;;;;;9.65;6.20;;;25.50;98.90;;;;;;5073227;28;20038;-73
2022/08/25 08:47:26;;;;;;;6.70;6.10;;;25.70;98.70;;;;;;5071438;28;20031;-73
2022/08/25 08:50:17;;;;;;;8.05;5.63;;;25.70;98.40;;;;;;5071954;28;20020;-73
2022/08/25 08:52:42;;;;;;;7.40;5.60;;;25.80;98.40;;;;;;5071028;28;20117;-74
2022/08/25 08:55:22;;;;;;;8.43;5.90;;;25.90;98.00;;;;;;5072330;28;20446;-73
2022/08/25 08:57:50;;;;;;;7.55;5.38;;;26.00;97.80;;;;;;5066028;28;20024;-73
2022/08/25 09:00:16;;;;;;;5.82;5.32;;;26.10;97.60;;;;;;5063307;28;20528;-73
2022/08/25 09:02:49;;;;;;;6.35;5.75;;;26.20;97.40;;;;;;5072992;28;20111;-73
2022/08/25 09:05:18;;;;;;;5.95;5.25;;;26.30;97.00;;;;;;5070901;28;20056;-73
2022/08/25 09:07:49;;;;;;;6.50;5.53;;;26.40;96.30;;;;;;5073052;28;20417;-73
2022/08/25 09:10:19;;;;;;;7.47;5.53;;;26.50;96.30;;;;;;5072201;28;20468;-73
2022/08/25 09:12:59;;;;;;;6.70;4.97;;;26.50;95.90;;;;;;5072654;28;20035;-73
2022/08/25 09:18:58;;;;;;;7.10;5.85;;;26.70;95.30;;;;;;5072528;28;20047;-72
2022/08/25 09:21:30;;;;;;;;;;;26.70;95.10;;;;;;5071642;28;20044;-72
2022/08/25 09:24:12;;;;;;;6.45;4.82;;;26.70;95.10;;;;;;5072840;28;19908;-72
2022/08/25 09:27:06;;;;;;;6.07;5.32;;;26.80;94.70;;;;;;5072350;28;20580;-72
2022/08/25 09:29:49;;;;;;;8.10;5.25;;;26.90;94.40;;;;;;5060001;28;20044;-72
2022/08/25 09:32:16;;;;;;;5.95;5.35;;;26.90;94.30;;;;;;5070976;28;20024;-72
2022/08/25 09:34:42;;;;;;;5.80;5.30;;;27.00;94.10;;;;;;5072384;28;20084;-72
2022/08/25 09:37:08;;;;;;;5.60;5.10;;;27.10;93.90;;;;;;5070600;28;20408;-72
2022/08/25 09:39:33;;;;;;;6.43;5.15;;;27.30;94.10;;;;;;5071715;28;20040;-72
2022/08/25 09:41:59;;;;;;;6.07;5.57;;;27.30;93.70;;;;;;5072410;28;20025;-73
2022/08/25 09:44:42;;;;;;;5.78;4.88;;;27.40;93.40;;;;;;5069465;28;20024;-74
2022/08/25 09:47:16;;;;;;;6.47;5.03;;;27.60;93.20;;;;;;5072002;28;20032;-75
2022/08/25 09:49:46;;;;;;;7.70;5.95;;;27.70;93.10;;;;;;5072103;28;20028;-73
2022/08/25 09:52:31;;;;;;;13.77;5.83;;;27.70;92.70;;;;;;5071287;28;20028;-73
2022/08/25 09:55:05;;;;;;;5.57;5.07;;;27.60;92.70;;;;;;5068095;28;20103;-73
2022/08/25 09:57:35;;;;;;;8.07;5.35;;;27.70;92.50;;;;;;5066575;28;20024;-72
2022/08/25 10:00:21;;;;;;;6.38;4.90;;;27.80;92.40;;;;;;5071409;28;20111;-73
2022/08/25 10:03:08;;;;;;;6.95;5.85;;;28.00;92.00;;;;;;5071547;28;20093;-73
2022/08/25 10:06:13;;;;;;;6.82;5.53;;;28.10;92.00;;;;;;5068653;28;20469;-73
2022/08/25 10:08:45;;;;;;;6.75;5.47;;;28.20;91.50;;;;;;4982749;28;20043;-73
2022/08/25 10:11:34;;;;;;;5.72;5.10;;;28.20;91.40;;;;;;5056964;28;20115;-72
2022/08/25 10:14:03;;;;;;;6.95;5.28;;;28.30;91.20;;;;;;5066457;28;20021;-73
2022/08/25 10:16:31;;;;;;;11.07;5.00;;;28.20;91.00;;;;;;5069229;28;20028;-73
2022/08/25 10:19:27;;;;;;;5.72;4.85;;;28.30;90.50;;;;;;5065564;28;20079;-73
2022/08/25 10:22:19;;;;;;;7.45;4.93;;;28.40;90.40;;;;;;5068376;28;20029;-73
2022/08/25 10:24:45;;;;;;;5.03;4.53;;;28.40;90.00;;;;;;5066371;28;20033;-74
2022/08/25 10:27:18;;;;;;;5.50;4.97;;;28.60;90.20;;;;;;5069625;28;20036;-72
2022/08/25 10:29:55;;;;;;;14.90;7.57;;;28.70;89.40;;;;;;5066024;28;20094;-73
2022/08/25 10:32:36;;;;;;;10.20;5.38;;;28.80;89.00;;;;;;5070512;28;20025;-73
2022/08/25 10:35:27;;;;;;;5.45;4.68;;;28.90;88.50;;;;;;5071686;28;20036;-74
2022/08/25 10:38:33;;;;;;;7.18;5.25;;;29.00;87.30;;;;;;5066485;28;20055;-74
2022/08/25 10:41:25;;;;;;;5.38;4.88;;;29.10;86.60;;;;;;5071210;28;20028;-73
2022/08/25 10:48:01;;;;;;;5.35;4.78;;;29.30;85.30;;;;;;5067135;28;20035;-72
2022/08/25 10:50:37;;;;;;;8.10;5.10;;;29.40;85.20;;;;;;5062182;28;20094;-74
2022/08/25 10:53:22;;;;;;;8.35;4.93;;;29.60;83.80;;;;;;5062819;28;20079;-75
2022/08/25 10:56:09;;;;;;;7.25;4.70;;;29.50;83.40;;;;;;5068343;28;20033;-73
2022/08/25 10:58:43;;;;;;;4.60;4.20;;;29.60;83.10;;;;;;5070759;28;20028;-73
2022/08/25 11:01:38;;;;;;;7.22;4.50;;;29.70;82.70;;;;;;5070027;28;20064;-71
2022/08/25 11:04:15;;;;;;;4.97;4.53;;;29.90;82.00;;;;;;5045070;28;20041;-73
2022/08/25 11:06:48;;;;;;;5.18;4.75;;;29.90;81.50;;;;;;5063784;28;20029;-72
2022/08/25 11:09:20;;;;;;;7.55;4.38;;;30.00;81.00;;;;;;5068648;28;20024;-73
2022/08/25 11:12:12;;;;;;;4.63;4.22;;;30.10;80.40;;;;;;5065136;28;20029;-74
2022/08/25 11:15:10;;;;;;;4.72;4.32;;;30.40;79.50;;;;;;5062902;28;20043;-74
2022/08/25 11:17:56;;;;;;;4.32;3.85;;;30.60;78.80;;;;;;5046572;28;20080;-74
2022/08/25 11:20:27;;;;;;;4.63;4.22;;;30.80;78.40;;;;;;5070184;28;20381;-74
2022/08/25 11:23:06;;;;;;;4.43;4.03;;;31.00;76.70;;;;;;5070958;28;20036;-74
2022/08/25 11:25:37;;;;;;;4.80;4.18;;;31.20;76.20;;;;;;5063814;28;20059;-73
2022/08/25 11:28:11;;;;;;;4.55;4.15;;;31.50;75.50;;;;;;5071042;28;20123;-73
2022/08/25 11:30:38;;;;;;;3.78;3.47;;;31.40;75.10;;;;;;5070480;28;20040;-73
2022/08/25 11:33:04;;;;;;;5.70;3.63;;;31.50;74.90;;;;;;5070550;28;20461;-74
2022/08/25 11:35:36;;;;;;;4.03;3.72;;;31.60;74.00;;;;;;5065312;28;20020;-74
2022/08/25 11:38:20;;;;;;;4.40;3.65;;;31.70;73.70;;;;;;5062682;28;20041;-74
2022/08/25 11:41:05;;;;;;;4.30;3.78;;;31.40;73.60;;;;;;5070694;28;20036;-73
2022/08/25 11:43:51;;;;;;;4.35;3.95;;;31.40;73.50;;;;;;5065020;28;20078;-73
2022/08/25 11:46:33;;;;;;;4.30;3.70;;;31.40;73.30;;;;;;5060336;28;20036;-72
2022/08/25 11:48:59;;;;;;;8.50;3.53;;;31.40;72.70;;;;;;5070462;28;20032;-74
2022/08/25 11:51:49;;;;;;;3.58;3.28;;;31.40;72.10;;;;;;5063237;28;20095;-74
2022/08/25 11:54:15;;;;;;;3.38;3.08;;;31.50;71.00;;;;;;5069678;28;20154;-74
2022/08/25 11:56:40;;;;;;;3.70;3.40;;;31.60;71.10;;;;;;5063012;28;20108;-74
2022/08/25 11:59:07;;;;;;;3.60;3.30;;;31.70;70.80;;;;;;5069981;28;20043;-73
2022/08/25 12:01:39;;;;;;;3.70;2.85;;;31.70;70.50;;;;;;5069479;28;20571;-74
2022/08/25 12:04:32;;;;;;;3.70;3.40;;;31.60;70.80;;;;;;5070429;28;20032;-74
2022/08/25 12:07:09;;;;;;;3.55;3.25;;;31.70;71.00;;;;;;5066370;28;20524;-74
2022/08/25 12:09:50;;;;;;;3.60;3.10;;;31.70;70.30;;;;;;5068211;28;20029;-74
2022/08/25 12:12:42;;;;;;;3.58;3.28;;;31.70;70.40;;;;;;5069315;28;20029;-73
2022/08/25 12:15:51;;;;;;;4.13;3.60;;;31.50;70.40;;;;;;5069995;28;20029;-72
2022/08/25 12:18:23;;;;;;;4.88;3.67;;;31.40;70.90;;;;;;5061477;28;20474;-74
2022/08/25 12:20:57;;;;;;;3.20;2.67;;;31.40;70.50;;;;;;5064463;28;20120;-74
2022/08/25 12:23:42;;;;;;;3.17;2.88;;;31.40;69.50;;;;;;5058121;28;20102;-74
2022/08/25 12:26:42;;;;;;;4.25;3.30;;;31.40;69.50;;;;;;5069196;28;20020;-73
2022/08/25 12:29:19;;;;;;;4.60;3.50;;;31.40;69.40;;;;;;5056445;28;20036;-73
2022/08/25 12:32:01;;;;;;;4.65;3.10;;;31.40;69.40;;;;;;5071558;28;20032;-73
2022/08/25 12:34:45;;;;;;;3.78;3.25;;;31.30;68.40;;;;;;5053910;28;20488;-74
2022/08/25 12:37:18;;;;;;;5.28;3.00;;;31.30;68.30;;;;;;5072748;28;20078;-72
2022/08/25 12:39:49;;;;;;;4.30;3.20;;;31.40;68.50;;;;;;5071194;28;20083;-74
2022/08/25 12:42:21;;;;;;;3.83;3.28;;;31.70;68.80;;;;;;5069375;28;20066;-74
2022/08/25 12:45:12;;;;;;;5.25;3.67;;;31.90;68.60;;;;;;5073350;28;20060;-74
2022/08/25 12:47:41;;;;;;;3.45;3.03;;;32.00;68.20;;;;;;5073354;28;20033;-73
2022/08/25 12:50:28;;;;;;;2.70;2.50;;;32.20;67.60;;;;;;5071250;28;20457;-74
2022/08/25 12:52:57;;;;;;;3.35;3.05;;;32.40;65.20;;;;;;5071103;28;20082;-74
2022/08/25 12:55:25;;;;;;;3.22;2.90;;;32.40;64.30;;;;;;5072441;28;20066;-74
2022/08/25 12:57:57;;;;;;;3.67;2.80;;;32.40;64.30;;;;;;5072894;28;20039;-74
2022/08/25 13:00:26;;;;;;;4.55;3.30;;;32.40;64.90;;;;;;5070923;28;20487;-74
2022/08/25 13:03:00;;;;;;;5.77;3.10;;;32.40;65.80;;;;;;5063410;28;20071;-74
2022/08/25 13:05:31;;;;;;;3.60;3.30;;;32.40;66.00;;;;;;5071983;28;20029;-74
2022/08/25 13:08:18;;;;;;;3.47;3.00;;;32.40;65.80;;;;;;5073364;28;20037;-74
2022/08/25 13:10:53;;;;;;;4.07;3.42;;;32.40;65.60;;;;;;5065273;28;20534;-74
2022/08/25 13:13:50;;;;;;;4.57;3.45;;;32.40;65.70;;;;;;5072225;28;20028;-73
2022/08/25 13:16:22;;;;;;;3.67;3.00;;;32.40;65.40;;;;;;5067064;28;20427;-74
2022/08/25 13:18:48;;;;;;;4.95;3.30;;;32.60;64.20;;;;;;5066869;28;20039;-74
2022/08/25 13:21:36;;;;;;;3.58;3.28;;;32.50;64.80;;;;;;5071883;28;20021;-72
2022/08/25 13:24:22;;;;;;;3.20;2.90;;;32.50;65.20;;;;;;5073058;28;20032;-75